Quintero, Chile

12:22 PM CLT on August 27, 2014 (GMT -0400)
Arturo Merino Benitez International | Change Station
CLOSE
Current Station
Airport
Location: Santiago,
Elevation: 1562 ft
Nearby Weather Stations

Elev 1562 ft 33.39 °S, 70.79 °W | Updated 22 minutes ago

Overcast
Overcast
50 °F
Feels Like 50 °F
N
5
Wind Variable Wind from SSE

Today
High -- | Low -- °F
--% Chance of Precip.
Yesterday
High -- | Low -- °F
Precip. -- in
7:09 AM 6:25 PM
Waxing Crescent, 4% visible
Pressure 30.09 in
Visibility 5.0 miles
Clouds Scattered Clouds 1200 ft
Overcast 2000 ft
Dew Point 43 °F
Humidity 76%
Rainfall 0.00 in
Snow Depth Not available.
UV 2 out of 12
Pollen Not available.
Air Quality Not available.
Flu Activity Not available.
METAR SCEL 271600Z 16004KT 120V190 8000 SCT012 OVC020 10/06 Q1019 NOS IG

More Conditions Fewer Conditions

Pressure 30.09 in
Visibility 5.0 miles
Clouds Scattered Clouds 1200 ft
Overcast 2000 ft
Dew Point 43 °F
Humidity 76%
Rainfall 0.00 in
Snow Depth Not available.
UV 2 out of 12
Pollen Not available.
Air Quality Not available.
Flu Activity Not available.
METAR SCEL 271600Z 16004KT 120V190 8000 SCT012 OVC020 10/06 Q1019 NOS IG

More Conditions Fewer Conditions

10-Day Weather Forecast

Almanac

Astronomy

Aug. 27, 2014 Rise Set
Actual Time 7:09 AM CLT 6:25 PM CLT
Civil Twilight 6:44 AM CLT 6:50 PM CLT
Nautical Twilight 6:16 AM CLT 7:19 PM CLT
Astronomical Twilight 5:47 AM CLT 7:48 PM CLT
Moon 8:02 AM CLT 8:28 PM CLT
Length of Visible Light 12h 06m
Length of Day
11h 16m
Tomorrow will be 1m 52s longer.
Waxing Crescent, 4% of the Moon is Illuminated
Today
Waxing Crescent
Sep 2
First Quarter
Sep 8
Full
Sep 15
Last Quarter
Sep 24
New

Today's Extremes

Country Highs Country Lows

Community

WunderPhotos

Upload Photos

1,747,724 photos uploaded!

Nearby

Snow Depth

Not available.

Earthquake Activity

City Distance Mag. Time & Date
No recent earthquake activity has been reported nearby.
Minimum magnitude displayed is 2.5.

Coastal Water Temperatures

Place Temperature
No Stations Reporting

Nearby Weather Stations